createdAt,value
2019-02-28T00:02:07.224Z,7.40
2019-02-28T00:04:37.231Z,7.30
2019-02-28T00:07:06.862Z,7.30
2019-02-28T00:09:36.864Z,7.30
2019-02-28T00:12:07.059Z,7.30
2019-02-28T00:14:36.633Z,7.30
2019-02-28T00:17:09.954Z,7.30
2019-02-28T00:19:39.595Z,7.30
2019-02-28T00:22:11.430Z,7.30
2019-02-28T00:24:40.413Z,7.30
2019-02-28T00:27:10.017Z,7.30
2019-02-28T00:29:39.591Z,7.30
2019-02-28T00:32:09.235Z,7.40
2019-02-28T00:34:39.205Z,7.40
2019-02-28T00:37:09.436Z,7.40
2019-02-28T00:39:39.023Z,7.40
2019-02-28T00:42:08.662Z,7.40
2019-02-28T00:44:40.216Z,7.30
2019-02-28T00:47:11.969Z,7.40
2019-02-28T00:49:41.578Z,7.30
2019-02-28T00:52:11.206Z,7.40
2019-02-28T00:54:44.391Z,7.40
2019-02-28T00:57:11.996Z,7.40
2019-02-28T00:59:41.567Z,7.30
2019-02-28T01:02:11.220Z,7.30
2019-02-28T01:04:40.796Z,7.30
2019-02-28T01:07:13.122Z,7.30
2019-02-28T01:09:41.617Z,7.30
2019-02-28T01:12:11.223Z,7.20
2019-02-28T01:14:40.802Z,7.20
2019-02-28T01:17:10.437Z,7.20
2019-02-28T01:19:41.326Z,7.20
2019-02-28T01:22:11.243Z,7.20
2019-02-28T01:24:40.883Z,7.20
2019-02-28T01:27:10.425Z,7.20
2019-02-28T01:29:40.012Z,7.20
2019-02-28T01:32:09.643Z,7.20
2019-02-28T01:34:39.238Z,7.20
2019-02-28T01:37:09.155Z,7.10
2019-02-28T01:39:38.738Z,7.00
2019-02-28T01:42:08.349Z,7.10
2019-02-28T01:44:37.937Z,7.10
2019-02-28T01:47:07.529Z,7.10
2019-02-28T01:49:37.140Z,7.10
2019-02-28T01:52:09.552Z,7.20
2019-02-28T01:54:37.988Z,7.20
2019-02-28T01:57:09.991Z,7.20
2019-02-28T01:59:39.612Z,7.20
2019-02-28T02:02:10.229Z,7.20
2019-02-28T02:04:39.803Z,7.20
2019-02-28T02:07:09.505Z,7.20
2019-02-28T02:09:39.105Z,7.20
2019-02-28T02:12:08.711Z,7.20
2019-02-28T02:14:38.338Z,7.20
2019-02-28T02:17:08.006Z,7.20
2019-02-28T02:19:37.609Z,7.20
2019-02-28T02:22:09.371Z,7.10
2019-02-28T02:24:38.603Z,7.00
2019-02-28T02:27:08.217Z,7.00
2019-02-28T02:29:37.843Z,7.00
2019-02-28T02:32:07.498Z,7.10
2019-02-28T02:34:37.102Z,7.10
2019-02-28T02:37:06.665Z,7.10
2019-02-28T02:39:36.325Z,7.20
2019-02-28T02:42:10.014Z,7.30
2019-02-28T02:44:37.292Z,7.30
2019-02-28T02:47:06.944Z,7.40
2019-02-28T02:49:36.548Z,7.30
2019-02-28T02:52:06.235Z,7.30
2019-02-28T02:54:35.893Z,7.40
2019-02-28T02:57:05.417Z,7.40
2019-02-28T02:59:38.989Z,7.40
2019-02-28T03:02:08.133Z,7.40
2019-02-28T03:04:37.682Z,7.30
2019-02-28T03:07:07.242Z,7.30
2019-02-28T03:09:36.888Z,7.30
2019-02-28T03:12:06.504Z,7.30
2019-02-28T03:14:36.123Z,7.30
2019-02-28T03:17:09.585Z,7.30
2019-02-28T03:19:37.062Z,7.30
2019-02-28T03:22:07.937Z,7.30
2019-02-28T03:24:37.560Z,7.20
2019-02-28T03:27:07.507Z,7.20
2019-02-28T03:29:43.391Z,7.10
2019-02-28T03:32:08.358Z,7.10
2019-02-28T03:34:37.981Z,7.10
2019-02-28T03:37:07.609Z,7.10
2019-02-28T03:39:37.216Z,7.10
2019-02-28T03:42:06.778Z,7.10
2019-02-28T03:44:36.435Z,7.10
2019-02-28T03:47:06.108Z,7.10
2019-02-28T03:49:35.739Z,7.10
2019-02-28T03:52:06.609Z,7.10
2019-02-28T03:54:36.579Z,7.10
2019-02-28T03:57:06.213Z,7.10
2019-02-28T03:59:35.853Z,7.00
2019-02-28T04:02:05.580Z,6.80
2019-02-28T04:04:36.468Z,6.90
2019-02-28T04:07:06.663Z,6.90
2019-02-28T04:09:36.302Z,6.90
2019-02-28T04:12:08.686Z,7.00
2019-02-28T04:14:37.384Z,6.90
2019-02-28T04:17:07.015Z,7.00
2019-02-28T04:19:36.616Z,7.00
2019-02-28T04:22:06.278Z,7.00
2019-02-28T04:24:35.935Z,7.00
2019-02-28T04:27:07.019Z,7.00
2019-02-28T04:29:36.784Z,7.00
2019-02-28T04:32:06.397Z,7.00
2019-02-28T04:34:36.020Z,7.00
2019-02-28T04:37:08.578Z,7.00
2019-02-28T04:39:36.907Z,7.00
2019-02-28T04:42:06.473Z,7.00
2019-02-28T04:44:36.128Z,7.10
2019-02-28T04:47:06.761Z,7.30
2019-02-28T04:49:37.096Z,7.40
2019-02-28T04:52:06.701Z,7.50
2019-02-28T04:54:37.180Z,7.60
2019-02-28T04:57:06.806Z,7.60
2019-02-28T04:59:36.409Z,7.70
2019-02-28T05:02:06.046Z,7.60
2019-02-28T05:04:36.122Z,7.60
2019-02-28T05:07:06.365Z,7.70
2019-02-28T05:09:36.349Z,7.70
2019-02-28T05:12:06.031Z,7.70
2019-02-28T05:14:35.601Z,7.70
2019-02-28T05:17:05.247Z,7.80
2019-02-28T05:19:35.732Z,7.80
2019-02-28T05:22:06.243Z,7.80
2019-02-28T05:24:35.796Z,7.90
2019-02-28T05:27:05.460Z,7.90
2019-02-28T05:29:35.141Z,7.90
2019-02-28T05:32:04.739Z,8.00
2019-02-28T05:34:34.373Z,8.00
2019-02-28T05:37:03.968Z,8.00
2019-02-28T05:39:33.733Z,8.00
2019-02-28T05:42:03.408Z,8.10
2019-02-28T05:44:33.127Z,8.20
2019-02-28T05:47:02.820Z,8.10
2019-02-28T05:49:32.401Z,8.10
2019-02-28T05:52:01.995Z,8.20
2019-02-28T05:54:32.068Z,8.40
2019-02-28T05:57:04.701Z,8.40
2019-02-28T05:59:33.196Z,8.40
2019-02-28T06:02:02.837Z,8.40
2019-02-28T06:04:34.158Z,8.40
2019-02-28T06:07:03.714Z,8.40
2019-02-28T06:09:33.382Z,8.40
2019-02-28T06:12:06.529Z,8.30
2019-02-28T06:14:35.042Z,8.40
2019-02-28T06:17:04.576Z,8.40
2019-02-28T06:19:34.338Z,8.40
2019-02-28T06:22:03.976Z,8.40
2019-02-28T06:24:33.723Z,8.50
2019-02-28T06:27:03.687Z,8.50
2019-02-28T06:29:36.799Z,8.60
2019-02-28T06:32:06.049Z,8.70
2019-02-28T06:34:35.738Z,8.70
2019-02-28T06:37:08.508Z,9.80
2019-02-28T06:39:38.129Z,9.60
2019-02-28T06:42:07.712Z,9.50
2019-02-28T06:44:37.309Z,9.40
2019-02-28T06:47:06.957Z,9.40
2019-02-28T06:49:40.974Z,9.30
2019-02-28T06:52:07.797Z,9.30
2019-02-28T06:54:39.908Z,9.30
2019-02-28T06:57:08.738Z,9.40
2019-02-28T06:59:39.185Z,9.40
2019-02-28T07:02:09.272Z,9.40
2019-02-28T07:04:38.881Z,9.40
2019-02-28T07:07:10.263Z,9.50
2019-02-28T07:09:39.826Z,9.50
2019-02-28T07:12:09.588Z,9.50
2019-02-28T07:14:39.247Z,9.70
2019-02-28T07:17:10.719Z,9.80
2019-02-28T07:19:40.162Z,9.80
2019-02-28T07:22:09.688Z,9.90
2019-02-28T07:24:39.358Z,9.90
2019-02-28T07:27:08.984Z,10.00
2019-02-28T07:29:38.621Z,10.20
2019-02-28T07:32:08.313Z,10.30
2019-02-28T07:34:39.248Z,10.40
2019-02-28T07:37:08.898Z,10.60
2019-02-28T07:39:40.445Z,10.60
2019-02-28T07:42:09.772Z,10.80
2019-02-28T07:44:39.537Z,10.80
2019-02-28T07:47:09.223Z,10.90
2019-02-28T07:49:38.799Z,11.00
2019-02-28T07:52:08.371Z,11.00
2019-02-28T07:54:38.008Z,11.10
2019-02-28T07:57:07.622Z,11.10
2019-02-28T07:59:40.877Z,11.20
2019-02-28T08:02:08.478Z,11.20
2019-02-28T08:04:38.083Z,11.30
2019-02-28T08:07:07.671Z,11.30
2019-02-28T08:09:40.576Z,11.40
2019-02-28T08:12:08.905Z,11.40
2019-02-28T08:14:38.573Z,11.50
2019-02-28T08:17:09.130Z,11.50
2019-02-28T08:19:39.401Z,11.60
2019-02-28T08:22:08.956Z,11.60
2019-02-28T08:24:38.556Z,11.60
2019-02-28T08:27:08.218Z,11.70
2019-02-28T08:29:37.880Z,11.70
2019-02-28T08:32:08.245Z,11.70
2019-02-28T08:34:37.907Z,11.70
2019-02-28T08:37:07.444Z,11.80
2019-02-28T08:39:37.020Z,11.80
2019-02-28T08:42:06.635Z,11.80
2019-02-28T08:44:36.225Z,11.80
2019-02-28T08:47:05.928Z,11.90
2019-02-28T08:49:53.389Z,11.90
2019-02-28T08:52:23.038Z,11.90
2019-02-28T08:54:52.624Z,12.00
2019-02-28T08:57:25.686Z,12.00
2019-02-28T08:59:56.354Z,12.10
2019-02-28T09:02:24.765Z,12.10
2019-02-28T09:04:54.381Z,12.10
2019-02-28T09:07:24.040Z,12.10
2019-02-28T09:09:53.579Z,12.10
2019-02-28T09:12:23.122Z,12.10
2019-02-28T09:14:55.235Z,12.20
2019-02-28T09:17:24.004Z,12.30
2019-02-28T09:19:53.602Z,12.30
2019-02-28T09:22:27.003Z,12.30
2019-02-28T09:24:54.399Z,12.30
2019-02-28T09:27:24.018Z,12.30
2019-02-28T09:29:54.694Z,12.30
2019-02-28T09:32:24.999Z,12.40
2019-02-28T09:34:56.860Z,12.40
2019-02-28T09:37:29.524Z,12.50
2019-02-28T09:39:57.766Z,12.50
2019-02-28T09:42:27.338Z,12.50
2019-02-28T09:44:56.948Z,12.50
2019-02-28T09:47:27.343Z,12.50
2019-02-28T09:49:57.024Z,12.50
2019-02-28T09:52:26.640Z,12.70
2019-02-28T09:54:56.261Z,12.70
2019-02-28T09:57:27.412Z,12.70
2019-02-28T09:59:57.102Z,12.80
2019-02-28T10:02:26.701Z,12.80
2019-02-28T10:04:56.349Z,12.80
2019-02-28T10:07:26.522Z,12.90
2019-02-28T10:09:56.661Z,12.90
2019-02-28T10:12:26.267Z,12.90
2019-02-28T10:14:55.833Z,12.90
2019-02-28T10:17:25.920Z,12.90
2019-02-28T10:19:56.624Z,12.90
2019-02-28T10:22:26.235Z,12.90
2019-02-28T10:24:55.754Z,13.00
2019-02-28T10:27:26.867Z,13.10
2019-02-28T10:29:56.551Z,13.10
2019-02-28T10:32:26.132Z,13.10
2019-02-28T10:34:58.345Z,13.10
2019-02-28T10:37:26.988Z,13.20
2019-02-28T10:39:56.626Z,13.30
2019-02-28T10:42:26.272Z,13.40
2019-02-28T10:44:55.943Z,13.40
2019-02-28T10:47:29.646Z,13.50
2019-02-28T10:49:58.281Z,13.50
2019-02-28T10:52:30.528Z,13.50
2019-02-28T10:54:59.289Z,13.50
2019-02-28T10:57:28.945Z,13.50
2019-02-28T10:59:59.219Z,13.50
2019-02-28T11:02:28.866Z,13.50
2019-02-28T11:05:01.507Z,13.50
2019-02-28T11:07:34.150Z,13.60
2019-02-28T11:10:02.598Z,13.60
2019-02-28T11:12:32.259Z,13.60
2019-02-28T11:15:01.871Z,13.60
2019-02-28T11:17:34.131Z,13.60
2019-02-28T11:20:02.721Z,13.60
2019-02-28T11:22:32.346Z,13.70
2019-02-28T11:25:02.187Z,13.70
2019-02-28T11:27:32.068Z,13.80
2019-02-28T11:30:01.695Z,13.80
2019-02-28T11:32:31.740Z,13.90
2019-02-28T11:35:01.506Z,13.90
2019-02-28T11:37:31.247Z,13.90
2019-02-28T11:40:00.913Z,13.90
2019-02-28T11:42:31.304Z,14.00
2019-02-28T11:45:00.874Z,14.10
2019-02-28T11:47:31.587Z,14.10
2019-02-28T11:50:04.546Z,14.10
2019-02-28T11:52:32.624Z,14.10
2019-02-28T11:55:02.197Z,14.00
2019-02-28T11:57:31.917Z,14.00
2019-02-28T12:00:01.749Z,14.00
2019-02-28T12:02:33.908Z,14.00
2019-02-28T12:05:03.493Z,14.10
2019-02-28T12:07:34.881Z,14.10
2019-02-28T12:10:04.537Z,14.20
2019-02-28T12:12:34.293Z,14.10
2019-02-28T12:15:05.994Z,14.20
2019-02-28T12:17:35.354Z,14.30
2019-02-28T12:20:05.725Z,14.30
2019-02-28T12:22:35.291Z,14.40
2019-02-28T12:25:07.574Z,14.40
2019-02-28T12:27:36.896Z,14.40
2019-02-28T12:30:09.222Z,14.40
2019-02-28T12:32:40.353Z,14.50
2019-02-28T12:35:10.266Z,14.50
2019-02-28T12:37:39.982Z,14.50
2019-02-28T12:40:12.042Z,14.50
2019-02-28T12:42:41.721Z,14.50
2019-02-28T12:45:14.776Z,14.40
2019-02-28T12:47:45.870Z,14.40
2019-02-28T12:50:15.789Z,14.40
2019-02-28T12:52:49.021Z,14.40
2019-02-28T12:55:17.340Z,14.30
2019-02-28T12:57:46.945Z,14.30
2019-02-28T13:00:23.411Z,14.40
2019-02-28T13:02:52.964Z,14.40
2019-02-28T13:05:22.634Z,14.40
2019-02-28T13:07:52.380Z,14.40
2019-02-28T13:10:26.877Z,14.40
2019-02-28T13:13:02.491Z,14.40
2019-02-28T13:15:25.587Z,14.40
2019-02-28T13:17:55.200Z,14.30
2019-02-28T13:20:25.085Z,14.30
2019-02-28T13:22:55.607Z,14.30
2019-02-28T13:25:26.228Z,14.30
2019-02-28T13:27:55.812Z,14.30
2019-02-28T13:30:25.597Z,14.30
2019-02-28T13:32:55.462Z,14.30
2019-02-28T13:35:27.427Z,14.20
2019-02-28T13:37:57.192Z,14.10
2019-02-28T13:40:26.924Z,14.20
2019-02-28T13:42:56.589Z,14.20
2019-02-28T13:45:26.533Z,14.20
2019-02-28T13:47:56.171Z,14.20
2019-02-28T13:50:27.095Z,14.30
2019-02-28T13:52:56.998Z,14.30
2019-02-28T13:55:26.717Z,14.20
2019-02-28T13:57:56.298Z,14.20
2019-02-28T14:00:28.772Z,14.20
2019-02-28T14:03:00.292Z,14.20
2019-02-28T14:05:29.911Z,14.30
2019-02-28T14:07:59.592Z,14.30
2019-02-28T14:10:29.541Z,14.20
2019-02-28T14:13:00.798Z,14.20
2019-02-28T14:15:36.090Z,14.30
2019-02-28T14:18:07.505Z,14.20
2019-02-28T14:20:37.155Z,14.20
2019-02-28T14:23:06.788Z,14.20
2019-02-28T14:25:39.787Z,14.20
2019-02-28T14:28:09.911Z,14.20
2019-02-28T14:30:39.544Z,14.10
2019-02-28T14:33:09.445Z,14.10
2019-02-28T14:35:39.108Z,14.00
2019-02-28T14:38:08.784Z,14.00
2019-02-28T14:40:38.545Z,13.90
2019-02-28T14:43:08.279Z,13.80
2019-02-28T14:45:39.249Z,13.70
2019-02-28T14:48:10.017Z,13.70
2019-02-28T14:50:39.837Z,13.60
2019-02-28T14:53:13.259Z,13.50
2019-02-28T14:55:40.849Z,13.50
2019-02-28T14:58:10.523Z,13.40
2019-02-28T15:00:42.286Z,13.40
2019-02-28T15:03:12.342Z,13.30
2019-02-28T15:05:41.969Z,13.20
2019-02-28T15:08:11.901Z,13.20
2019-02-28T15:10:43.165Z,13.20
2019-02-28T15:13:12.800Z,13.20
2019-02-28T15:15:42.386Z,13.20
2019-02-28T15:18:26.172Z,13.10
2019-02-28T15:20:57.076Z,13.10
2019-02-28T15:23:30.865Z,13.10
2019-02-28T15:26:02.254Z,13.00
2019-02-28T15:28:32.327Z,13.00
2019-02-28T15:31:05.808Z,12.90
2019-02-28T15:33:35.344Z,12.90
2019-02-28T15:36:33.675Z,12.90
2019-02-28T15:39:05.221Z,12.90
2019-02-28T15:41:41.048Z,12.80
2019-02-28T15:44:13.762Z,12.80
2019-02-28T15:46:47.384Z,12.70
2019-02-28T15:49:17.169Z,12.70
2019-02-28T15:51:46.952Z,12.60
2019-02-28T15:54:26.861Z,12.60
2019-02-28T15:57:02.799Z,12.50
2019-02-28T15:59:33.389Z,12.50
2019-02-28T16:02:06.360Z,12.40
2019-02-28T16:04:35.866Z,12.40
2019-02-28T16:07:05.525Z,12.30
2019-02-28T16:09:35.065Z,12.30
2019-02-28T16:12:04.595Z,12.20
2019-02-28T16:14:34.793Z,12.20
2019-02-28T16:17:05.276Z,12.10
2019-02-28T16:19:34.924Z,12.80
2019-02-28T16:22:04.608Z,13.20
2019-02-28T16:24:36.676Z,13.70
2019-02-28T16:27:05.536Z,14.00
2019-02-28T16:29:35.165Z,14.20
2019-02-28T16:32:04.864Z,14.30
2019-02-28T16:34:34.533Z,14.30
2019-02-28T16:37:04.283Z,13.70
2019-02-28T16:39:33.933Z,13.20
2019-02-28T16:42:03.459Z,12.80
2019-02-28T16:44:33.168Z,12.50
2019-02-28T16:47:02.754Z,12.30
2019-02-28T16:49:32.398Z,12.10
2019-02-28T16:52:02.549Z,12.00
2019-02-28T16:54:33.264Z,11.90
2019-02-28T16:57:02.937Z,11.80
2019-02-28T16:59:32.562Z,11.70
2019-02-28T17:02:02.197Z,11.60
2019-02-28T17:04:31.777Z,11.50
2019-02-28T17:07:02.713Z,11.50
2019-02-28T17:09:43.290Z,11.40
2019-02-28T17:12:36.581Z,11.40
2019-02-28T17:15:11.853Z,11.40
2019-02-28T17:17:47.078Z,11.30
2019-02-28T17:20:17.467Z,11.20
2019-02-28T17:22:49.599Z,11.20
2019-02-28T17:25:21.615Z,11.20
2019-02-28T17:28:03.614Z,11.20
2019-02-28T17:31:11.639Z,11.10
2019-02-28T17:33:43.321Z,11.10
2019-02-28T17:36:13.359Z,11.00
2019-02-28T17:38:42.966Z,11.00
2019-02-28T17:41:12.647Z,11.00
2019-02-28T17:43:43.997Z,11.00
2019-02-28T17:46:13.641Z,11.00
2019-02-28T17:49:30.008Z,10.90
2019-02-28T17:52:06.893Z,11.00
2019-02-28T17:54:47.015Z,10.90
2019-02-28T17:57:35.131Z,10.90
2019-02-28T18:00:34.716Z,10.90
2019-02-28T18:03:44.958Z,10.80
2019-02-28T18:07:19.990Z,10.80
2019-02-28T18:10:20.967Z,10.70
2019-02-28T18:13:19.967Z,10.70
2019-02-28T18:16:17.947Z,10.60
2019-02-28T18:19:33.149Z,10.50
2019-02-28T18:22:28.837Z,10.50
2019-02-28T18:25:23.704Z,10.40
2019-02-28T18:28:40.416Z,10.40
2019-02-28T18:31:22.274Z,10.40
2019-02-28T18:34:24.075Z,10.40
2019-02-28T18:36:53.814Z,10.30
2019-02-28T18:39:25.321Z,10.20
2019-02-28T18:41:56.016Z,10.20
2019-02-28T18:44:32.688Z,10.20
2019-02-28T18:47:04.137Z,10.20
2019-02-28T18:49:33.884Z,10.10
2019-02-28T18:52:03.550Z,10.10
2019-02-28T18:54:33.587Z,10.10
2019-02-28T18:57:05.001Z,10.00
2019-02-28T18:59:34.665Z,9.90
2019-02-28T19:02:04.667Z,9.90
2019-02-28T19:11:31.272Z,9.70
2019-02-28T19:14:01.119Z,9.70
2019-02-28T19:16:31.083Z,9.60
2019-02-28T19:19:01.117Z,9.60
2019-02-28T19:21:30.921Z,9.60
2019-02-28T19:24:00.758Z,9.50
2019-02-28T19:26:32.244Z,9.40
2019-02-28T19:29:02.000Z,9.50
2019-02-28T19:31:33.950Z,9.50
2019-02-28T19:34:03.885Z,9.40
2019-02-28T19:36:33.689Z,9.50
2019-02-28T19:39:04.662Z,9.40
2019-02-28T19:41:36.484Z,9.40
2019-02-28T19:44:05.850Z,9.40
2019-02-28T19:46:35.782Z,9.40
2019-02-28T19:49:08.836Z,9.40
2019-02-28T19:51:42.037Z,9.40
2019-02-28T19:54:12.877Z,9.30
2019-02-28T19:56:44.412Z,9.30
2019-02-28T19:59:14.106Z,9.30
2019-02-28T20:01:45.440Z,9.30
2019-02-28T20:04:15.578Z,9.20
2019-02-28T20:06:45.441Z,9.30
2019-02-28T20:09:17.587Z,9.20
2019-02-28T20:11:47.465Z,9.20
2019-02-28T20:14:17.292Z,9.20
2019-02-28T20:16:47.244Z,9.20
2019-02-28T20:19:26.152Z,9.30
2019-02-28T20:21:56.032Z,9.30
2019-02-28T20:24:28.925Z,9.30
2019-02-28T20:26:59.152Z,9.30
2019-02-28T20:29:28.927Z,9.30
2019-02-28T20:31:58.685Z,9.20
2019-02-28T20:34:29.480Z,9.20
2019-02-28T20:37:01.880Z,9.10
2019-02-28T20:39:31.575Z,9.10
2019-02-28T20:42:03.083Z,9.00
2019-02-28T20:44:32.861Z,8.90
2019-02-28T20:47:02.840Z,8.80
2019-02-28T20:49:32.629Z,8.80
2019-02-28T20:52:05.483Z,8.70
2019-02-28T20:54:35.376Z,8.70
2019-02-28T20:57:05.084Z,8.70
2019-02-28T20:59:35.829Z,8.70
2019-02-28T21:02:08.968Z,8.70
2019-02-28T21:04:38.700Z,8.70
2019-02-28T21:07:56.779Z,8.70
2019-02-28T21:10:31.063Z,8.70
2019-02-28T21:13:00.758Z,8.70
2019-02-28T21:15:31.848Z,8.70
2019-02-28T21:18:01.541Z,8.60
2019-02-28T21:20:33.752Z,8.50
2019-02-28T21:23:03.498Z,8.40
2019-02-28T21:25:33.243Z,8.40
2019-02-28T21:28:04.056Z,8.30
2019-02-28T21:30:33.708Z,8.10
2019-02-28T21:33:05.608Z,8.00
2019-02-28T21:35:35.369Z,7.90
2019-02-28T21:38:05.007Z,7.80
2019-02-28T21:40:35.097Z,7.70
2019-02-28T21:43:04.840Z,7.70
2019-02-28T21:45:36.233Z,7.50
2019-02-28T21:48:05.997Z,7.50
2019-02-28T21:50:35.755Z,7.40
2019-02-28T21:53:06.300Z,7.40
2019-02-28T21:55:35.990Z,7.40
2019-02-28T21:58:05.670Z,7.30
2019-02-28T22:00:35.381Z,7.30
2019-02-28T22:03:05.485Z,7.30
2019-02-28T22:05:35.122Z,7.30
2019-02-28T22:08:04.879Z,7.30
2019-02-28T22:10:34.556Z,7.40
2019-02-28T22:13:04.196Z,7.50
2019-02-28T22:15:33.990Z,7.40
2019-02-28T22:18:03.785Z,7.50
2019-02-28T22:20:33.505Z,7.50
2019-02-28T22:23:03.249Z,7.50
2019-02-28T22:25:33.279Z,7.60
2019-02-28T22:28:03.013Z,7.60
2019-02-28T22:30:51.561Z,7.60
2019-02-28T22:33:40.398Z,7.60
2019-02-28T22:36:12.421Z,7.70
2019-02-28T22:38:42.049Z,7.70
2019-02-28T22:41:11.696Z,7.70
2019-02-28T22:43:41.505Z,7.70
2019-02-28T22:46:11.488Z,7.60
2019-02-28T22:48:41.231Z,7.70
2019-02-28T22:51:13.194Z,7.70
2019-02-28T22:53:42.880Z,7.70
2019-02-28T22:56:12.571Z,7.70
2019-02-28T22:58:42.297Z,7.70
2019-02-28T23:01:17.696Z,7.80
2019-02-28T23:03:47.323Z,7.80
2019-02-28T23:06:16.933Z,7.80
2019-02-28T23:08:46.548Z,7.90
2019-02-28T23:11:16.186Z,7.90
2019-02-28T23:13:45.891Z,7.90
2019-02-28T23:16:19.979Z,7.90
2019-02-28T23:18:49.553Z,8.00
2019-02-28T23:21:19.154Z,8.10
2019-02-28T23:23:50.773Z,8.10
2019-02-28T23:26:25.837Z,8.00
2019-02-28T23:29:00.257Z,8.00
2019-02-28T23:32:01.221Z,8.00
2019-02-28T23:34:34.546Z,7.90
2019-02-28T23:37:04.196Z,7.90
2019-02-28T23:39:33.770Z,7.90
2019-02-28T23:42:03.641Z,8.00
2019-02-28T23:44:33.313Z,7.90
2019-02-28T23:47:02.957Z,7.90
2019-02-28T23:49:32.631Z,8.00
2019-02-28T23:52:02.295Z,8.00
2019-02-28T23:54:31.947Z,8.00
2019-02-28T23:57:01.802Z,7.90
2019-02-28T23:59:31.484Z,7.80
